Map

Track Data

SID SEASON NUMBER BASIN SUBBASIN NAME ISO_TIME NATURE LAT LON WMO_WIND WMO_PRES WMO_AGENCY TRACK_TYPE DIST2LAND LANDFALL IFLAG USA_AGENCY USA_ATCF_ID USA_LAT USA_LON USA_RECORD USA_STATUS USA_WIND USA_PRES USA_SSHS USA_R34_NE USA_R34_SE USA_R34_SW USA_R34_NW USA_R50_NE USA_R50_SE USA_R50_SW USA_R50_NW USA_R64_NE USA_R64_SE USA_R64_SW USA_R64_NW USA_POCI USA_ROCI USA_RMW USA_EYE TOKYO_LAT TOKYO_LON TOKYO_GRADE TOKYO_WIND TOKYO_PRES TOKYO_R50_DIR TOKYO_R50_LONG TOKYO_R50_SHORT TOKYO_R30_DIR TOKYO_R30_LONG TOKYO_R30_SHORT TOKYO_LAND CMA_LAT CMA_LON CMA_CAT CMA_WIND CMA_PRES HKO_LAT HKO_LON HKO_CAT HKO_WIND HKO_PRES NEWDELHI_LAT NEWDELHI_LON NEWDELHI_GRADE NEWDELHI_WIND NEWDELHI_PRES NEWDELHI_CI NEWDELHI_DP NEWDELHI_POCI REUNION_LAT REUNION_LON REUNION_TYPE REUNION_WIND REUNION_PRES REUNION_TNUM REUNION_CI REUNION_RMW REUNION_R34_NE REUNION_R34_SE REUNION_R34_SW REUNION_R34_NW REUNION_R50_NE REUNION_R50_SE REUNION_R50_SW REUNION_R50_NW REUNION_R64_NE REUNION_R64_SE REUNION_R64_SW REUNION_R64_NW BOM_LAT BOM_LON BOM_TYPE BOM_WIND BOM_PRES BOM_TNUM BOM_CI BOM_RMW BOM_R34_NE BOM_R34_SE BOM_R34_SW BOM_R34_NW BOM_R50_NE BOM_R50_SE BOM_R50_SW BOM_R50_NW BOM_R64_NE BOM_R64_SE BOM_R64_SW BOM_R64_NW BOM_ROCI BOM_POCI BOM_EYE BOM_POS_METHOD BOM_PRES_METHOD NADI_LAT NADI_LON NADI_CAT NADI_WIND NADI_PRES WELLINGTON_LAT WELLINGTON_LON WELLINGTON_WIND WELLINGTON_PRES DS824_LAT DS824_LON DS824_STAGE DS824_WIND DS824_PRES TD9636_LAT TD9636_LON TD9636_STAGE TD9636_WIND TD9636_PRES TD9635_LAT TD9635_LON TD9635_WIND TD9635_PRES TD9635_ROCI NEUMANN_LAT NEUMANN_LON NEUMANN_CLASS NEUMANN_WIND NEUMANN_PRES MLC_LAT MLC_LON MLC_CLASS MLC_WIND MLC_PRES USA_GUST BOM_GUST BOM_GUST_PER REUNION_GUST REUNION_GUST_PER USA_SEAHGT USA_SEARAD_NE USA_SEARAD_SE USA_SEARAD_SW USA_SEARAD_NW STORM_SPEED STORM_DIR
1973085S09104 1973 40 SI WA PAULA 1973-03-25 18:00:00 TS -8.60000 103.500 main 275 275 O_____________ jtwc_sh SH321973 -8.60000 103.500 -1 2 283
1973085S09104 1973 40 SI WA PAULA 1973-03-25 21:00:00 TS -8.58251 103.423 main 282 282 P_____________ SH321973 -8.58251 103.423 -1 1 270
1973085S09104 1973 40 SI WA PAULA 1973-03-26 00:00:00 TS -8.60000 103.367 20 1006 bom main 282 282 O_____O__O__O_ jtwc_sh SH321973 -8.60000 103.300 -1 -8.60000 103.500 20 20 1006 1.00000 -8.60000 103.500 TC 15 1006 -8.60000 103.500 TC 15 1006 45 45 3 251
1973085S09104 1973 40 SI WA PAULA 1973-03-26 03:00:00 TS -8.68856 103.114 20 1006 bom main 314 314 P_____O__P__P_ SH321973 -8.67746 103.095 -1 -8.70000 103.100 20 20 1006 1.00000 1.00000 -8.70505 103.160 TC 15 1006 -8.70505 103.160 TC 15 1006 45 45 6 250
1973085S09104 1973 40 SI WA PAULA 1973-03-26 06:00:00 TS -8.80000 102.800 20 1006 bom main 346 346 O_____O__OO_O_ jtwc_sh SH321973 -8.80000 102.800 -1 -8.80000 102.800 20 20 1006 1.00000 -8.80000 102.800 TC 15 1006 -8.80000 102.800 2 -8.80000 102.800 TC 15 1006 45 45 7 252
1973085S09104 1973 40 SI WA PAULA 1973-03-26 09:00:00 TS -8.91345 102.409 20 1005 bom main 388 388 P_____O__PP_P_ SH321973 -8.94252 102.423 -1 -8.90000 102.400 20 20 1005 1.00000 -8.88498 102.407 TC 17 1005 -8.93793 102.380 2 -8.88498 102.407 TC 17 1005 45 45 8 253
1973085S09104 1973 40 SI WA PAULA 1973-03-26 12:00:00 TS -9.04528 101.996 20 1005 bom main 430 430 O_____O__OP_O_ jtwc_sh SH321973 -9.10000 102.000 -1 -9.00000 102.000 20 20 1005 1.00000 -9.00000 102.000 TC 20 1005 -9.08049 101.968 2 -9.00000 102.000 TC 20 1005 45 45 9 250
1973085S09104 1973 40 SI WA PAULA 1973-03-26 15:00:00 TS -9.21212 101.590 20 1005 bom main 479 479 P_____O__PP_P_ SH321973 -9.24250 101.585 -1 -9.20000 101.600 20 20 1005 1.00000 -9.17746 101.600 TC 20 1005 -9.23280 101.572 2 -9.17746 101.600 TC 20 1005 45 45 9 246
1973085S09104 1973 40 SI WA PAULA 1973-03-26 18:00:00 TS -9.40000 101.200 20 1005 bom main 528 528 O_____O__OO_O_ jtwc_sh SH321973 -9.40000 101.200 -1 -9.40000 101.200 20 20 1005 1.00000 -9.40000 101.200 TC 20 1005 -9.40000 101.200 2 -9.40000 101.200 TC 20 1005 45 45 9 242
1973085S09104 1973 40 SI WA PAULA 1973-03-26 21:00:00 TS -9.61421 100.833 25 1004 bom main 577 577 P_____O__PP_P_ SH321973 -9.59241 100.892 -1 -9.60000 100.800 20 25 1004 1.00000 -9.65752 100.778 TC 20 1004 -9.58540 100.857 2 -9.65752 100.778 TC 20 1004 45 45 8 237
1973085S09104 1973 40 SI WA PAULA 1973-03-27 00:00:00 TS -9.84745 100.489 25 1004 bom main 617 617 O_____O__OP_O_ jtwc_sh SH321973 -9.80000 100.600 -1 -9.90000 100.400 20 25 1004 1.50000 1.50000 -9.90000 100.400 TC 20 1004 -9.78470 100.535 2 -9.90000 100.400 TC 20 1004 45 45 8 238
1973085S09104 1973 40 SI WA PAULA 1973-03-27 03:00:00 TS -10.0177 100.184 25 1004 bom main 656 656 P_____O__PP_P_ SH321973 -9.99999 100.257 -1 -10.0000 100.100 20 25 1004 1.50000 -10.0574 100.135 TC 22 1003 -9.99166 100.220 2 -10.0574 100.135 TC 22 1003 45 45 7 239
1973085S09104 1973 40 SI WA PAULA 1973-03-27 06:00:00 TS -10.2000 99.9000 25 1003 bom main 696 696 O_____O__OO_O_ jtwc_sh SH321973 -10.2000 99.9000 -1 -10.2000 99.9000 20 25 1003 1.50000 -10.2000 99.9000 TC 25 1003 -10.2000 99.9000 2 -10.2000 99.9000 TC 25 1003 45 45 7 237
1973085S09104 1973 40 SI WA PAULA 1973-03-27 09:00:00 TS -10.3968 99.5830 25 1003 bom main 736 736 P_____O__PP_P_ SH321973 -10.4000 99.5500 -1 -10.4000 99.6000 20 25 1003 1.50000 -10.3924 99.6225 TC 25 1002 -10.3959 99.5530 2 -10.3924 99.6225 TC 25 1002 45 45 8 238
1973085S09104 1973 40 SI WA PAULA 1973-03-27 12:00:00 TS -10.5987 99.2500 25 1002 bom main 785 785 O_____O__OP_O_ jtwc_sh SH321973 -10.6000 99.2000 -1 -10.6000 99.3000 20 25 1002 1.50000 -10.6000 99.3000 TC 25 1002 -10.5924 99.1998 2 -10.6000 99.3000 TC 25 1002 45 45 8 240
1973085S09104 1973 40 SI WA PAULA 1973-03-27 15:00:00 TS -10.7988 98.8769 25 1002 bom main 825 825 P_____O__PP_P_ SH321973 -10.8000 98.8500 -1 -10.8000 98.9000 20 25 1002 1.50000 -10.8000 98.9075 TC 25 1002 -10.7928 98.8467 2 -10.8000 98.9075 TC 25 1002 45 45 8 241
1973085S09104 1973 40 SI WA PAULA 1973-03-27 18:00:00 TS -11.0000 98.5000 25 1002 bom main 873 873 O_____O__OO_O_ jtwc_sh SH321973 -11.0000 98.5000 -1 -11.0000 98.5000 20 25 1002 1.50000 -11.0000 98.5000 TC 25 1002 -11.0000 98.5000 2 -11.0000 98.5000 TC 25 1002 45 45 8 241
1973085S09104 1973 40 SI WA PAULA 1973-03-27 21:00:00 TS -11.1979 98.1564 25 1001 bom main 910 910 P_____O__PP_P_ SH321973 -11.1925 98.1424 -1 -11.2000 98.2000 20 25 1001 2.00000 -11.1925 98.1349 TC 27 1001 -11.2175 98.1838 2 -11.1925 98.1349 TC 25 1001 45 45 8 239
1973085S09104 1973 40 SI WA PAULA 1973-03-28 00:00:00 TS -11.4070 97.8120 25 1001 bom main 955 955 O_____O__OP_O_ jtwc_sh SH321973 -11.4000 97.8000 -1 -11.4000 97.8000 20 25 1001 2.00000 -11.4000 97.8000 TC 30 1001 -11.4421 97.8721 2 -11.4000 97.8000 TC 25 1001 45 45 8 234
1973085S09104 1973 40 SI WA PAULA 1973-03-28 03:00:00 TS -11.6450 97.5274 25 1000 bom main 993 993 P_____O__PP_P_ SH321973 -11.6499 97.5149 -1 -11.6000 97.6000 20 25 1000 2.00000 2.00000 -11.6499 97.4925 TC 30 1000 -11.6706 97.5494 2 -11.6499 97.4925 TC 27 1000 45 45 8 231
1973085S09104 1973 40 SI WA PAULA 1973-03-28 06:00:00 TS -11.9000 97.2000 30 999 bom main 1039 1039 O_____O__OO_O_ jtwc_sh SH321973 -11.9000 97.2000 -1 -11.9000 97.2000 20 30 999 2.00000 -11.9000 97.2000 TC 30 999 -11.9000 97.2000 2 35 -11.9000 97.2000 TC 30 999 45 45 8 236
1973085S09104 1973 40 SI WA PAULA 1973-03-28 09:00:00 TS -12.1042 96.8353 30 999 bom main 1084 1084 P_____O__PP_P_ SH321973 -12.1001 96.7649 -1 -12.1000 96.9000 20 30 999 2.00000 -12.0999 96.9074 TC 30 999 -12.1253 96.7673 2 -12.0999 96.9074 TC 30 999 45 45 8 241
1973085S09104 1973 40 SI WA PAULA 1973-03-28 12:00:00 TS -12.3084 96.4521 30 999 bom main 1122 1122 O_____O__OP_O_ jtwc_sh SH321973 -12.3000 96.3000 -1 -12.3000 96.6000 20 30 999 2.00000 -12.3000 96.6000 TC 30 999 -12.3505 96.3127 2 -12.3000 96.6000 TC 30 999 45 45 9 240
1973085S09104 1973 40 SI WA PAULA 1973-03-28 15:00:00 TS -12.5434 96.0695 30 999 bom main 1167 1167 P_____O__PP_P_ SH321973 -12.5500 95.8626 -1 -12.5000 96.3000 20 30 999 2.50000 -12.5425 96.2575 TC 30 999 -12.5754 95.8767 2 -12.5425 96.2575 TC 30 999 45 45 9 236
1973085S09104 1973 40 SI WA PAULA 1973-03-28 18:00:00 TS -12.8000 95.7000 30 999 bom main 1221 1221 O_____O__OO_O_ jtwc_sh SH321973 -12.8000 95.5000 -1 -12.8000 95.9000 20 30 999 2.50000 -12.8000 95.9000 TC 30 999 -12.8000 95.5000 2 -12.8000 95.9000 TC 30 999 45 45 8 234
1973085S09104 1973 40 SI WA PAULA 1973-03-28 21:00:00 TS -13.0232 95.3928 30 998 bom main 1259 1259 P_____O__PP_P_ SH321973 -12.9999 95.2699 -1 -13.0000 95.5000 20 30 998 2.50000 -13.0575 95.5350 TC 32 998 -13.0245 95.2471 2 -13.0575 95.5350 TC 32 998 45 45 7 230
1973085S09104 1973 40 SI WA PAULA 1973-03-29 00:00:00 TS -13.2582 95.1424 35 997 bom main 1306 1306 O_____O__OP_O_ jtwc_sh SH321973 -13.2000 95.1000 -1 -13.3000 95.2000 30 35 997 2.50000 -13.3000 95.2000 TC 35 997 -13.2494 95.0544 2 -13.3000 95.2000 TC 35 997 49 49 7 226
1973085S09104 1973 40 SI WA PAULA 1973-03-29 03:00:00 TS -13.4816 94.9091 35 997 bom main 1337 1337 P_____O__PP_P_ SH321973 -13.4500 94.9075 -1 -13.5000 94.9000 30 35 997 2.50000 2.50000 -13.5074 94.9274 TC 35 997 -13.4746 94.8846 2 -13.5074 94.9274 TC 35 997 49 49 6 224
1973085S09104 1973 40 SI WA PAULA 1973-03-29 06:00:00 TS -13.7000 94.7000 35 997 bom main 1368 1368 O_____O__OO_O_ jtwc_sh SH321973 -13.7000 94.7000 -1 -13.7000 94.7000 30 35 997 2.50000 -13.7000 94.7000 TC 35 997 -13.7000 94.7000 2 -13.7000 94.7000 TC 35 997 49 49 6 224
1973085S09104 1973 40 SI WA PAULA 1973-03-29 09:00:00 TS -13.9023 94.4850 35 997 bom main 1399 1399 P_____O__PP_P_ SH321973 -13.9000 94.4649 -1 -13.9000 94.5000 30 35 997 2.50000 -13.8924 94.5149 TC 35 997 -13.9290 94.4506 2 -13.8924 94.5149 TC 35 997 49 49 6 227
1973085S09104 1973 40 SI WA PAULA 1973-03-29 12:00:00 TS -14.1096 94.2467 35 997 bom main 1437 1437 O_____O__OP_O_ jtwc_sh SH321973 -14.1000 94.2000 -1 -14.1000 94.3000 30 35 997 2.50000 -14.1000 94.3000 TC 35 997 -14.1575 94.1799 2 -14.1000 94.3000 TC 35 997 49 49 7 230
1973085S09104 1973 40 SI WA PAULA 1973-03-29 15:00:00 TS -14.3445 93.9399 35 997 bom main 1476 1476 P_____O__PP_P_ SH321973 -14.3500 93.9075 -1 -14.3000 94.0000 30 35 997 2.50000 -14.3426 93.9650 TC 35 997 -14.3821 93.8943 2 -14.3426 93.9650 TC 35 997 49 49 8 232
1973085S09104 1973 40 SI WA PAULA 1973-03-29 18:00:00 TS -14.6000 93.6000 35 997 bom main 1522 1522 O_____O__OO_O_ jtwc_sh SH321973 -14.6000 93.6000 -1 -14.6000 93.6000 30 35 997 2.50000 -14.6000 93.6000 TC 35 997 -14.6000 93.6000 2 -14.6000 93.6000 TC 35 997 49 49 8 231
1973085S09104 1973 40 SI WA PAULA 1973-03-29 21:00:00 TS -14.8433 93.3000 35 997 bom main 1560 1560 P_____O__PP_P_ SH321973 -14.8075 93.2999 -1 -14.9000 93.3000 30 35 997 2.50000 -14.8649 93.2925 TC 35 997 -14.8152 93.3152 2 -14.8649 93.2925 TC 35 997 49 49 7 232
1973085S09104 1973 40 SI WA PAULA 1973-03-30 00:00:00 TS -15.0537 93.0037 35 997 bom main 1607 1607 O_____O__OP_O_ jtwc_sh SH321973 -15.0000 93.0000 -1 -15.1000 93.0000 30 35 997 2.50000 -15.1000 93.0000 TC 35 997 -15.0223 93.0223 2 -15.1000 93.0000 TC 35 997 49 49 7 235
1973085S09104 1973 40 SI WA PAULA 1973-03-30 03:00:00 TS -15.2413 92.7055 30 997 bom main 1636 1636 P_____O__PP_P_ SH321973 -15.2074 92.7075 -1 -15.3000 92.7000 20 30 997 2.50000 2.50000 -15.2575 92.6999 TC 35 997 -15.2183 92.7183 2 -15.2575 92.6999 TC 35 997 45 45 7 239
1973085S09104 1973 40 SI WA PAULA 1973-03-30 06:00:00 TS -15.4000 92.4000 30 998 bom main 1674 1674 O_____O__OO_O_ jtwc_sh SH321973 -15.4000 92.4000 -1 -15.4000 92.4000 20 30 998 2.50000 -15.4000 92.4000 TC 35 998 -15.4000 92.4000 2 -15.4000 92.4000 TC 35 998 45 45 7 240
1973085S09104 1973 40 SI WA PAULA 1973-03-30 09:00:00 TS -15.5871 92.0863 30 998 bom main 1713 1713 P_____O__PP_P_ SH321973 -15.5575 92.0574 -1 -15.6000 92.1000 20 30 998 2.50000 -15.6074 92.1150 TC 32 998 -15.5927 92.0726 2 -15.6074 92.1150 TC 32 998 45 45 7 240
1973085S09104 1973 40 SI WA PAULA 1973-03-30 12:00:00 TS -15.7612 91.7551 30 999 bom main 1751 1751 O_____O__OP_O_ jtwc_sh SH321973 -15.7000 91.7000 -1 -15.8000 91.8000 20 30 999 2.50000 -15.8000 91.8000 TC 30 999 -15.7673 91.7303 2 -15.8000 91.8000 TC 30 999 45 45 7 245
1973085S09104 1973 40 SI WA PAULA 1973-03-30 15:00:00 TS -15.8997 91.3863 30 999 bom main 1788 1788 P_____O__PP_P_ SH321973 -15.8649 91.3575 -1 -15.9000 91.4000 20 30 999 2.50000 -15.9300 91.4150 TC 30 999 -15.9082 91.3727 2 -15.9300 91.4150 TC 30 999 45 45 8 252
1973085S09104 1973 40 SI WA PAULA 1973-03-30 18:00:00 TS -16.0000 91.0000 30 1000 bom main 1821 1821 O_____O__OO_O_ jtwc_sh SH321973 -16.0000 91.0000 -1 -16.0000 91.0000 20 30 1000 2.50000 -16.0000 91.0000 TC 30 1000 -16.0000 91.0000 2 -16.0000 91.0000 TC 30 1000 45 45 8 259
1973085S09104 1973 40 SI WA PAULA 1973-03-30 21:00:00 TS -16.0462 90.6069 30 1000 bom main 1842 1842 P_____O__PP_P_ SH321973 -16.0875 90.6075 -1 -16.0000 90.6000 20 30 1000 2.50000 -16.0224 90.6000 TC 30 1000 -16.0575 90.6266 2 -16.0224 90.6000 TC 27 1000 45 45 8 267
1973085S09104 1973 40 SI WA PAULA 1973-03-31 00:00:00 TS -16.0437 90.2063 30 1001 bom main 1864 1864 O_____O__OP_O_ jtwc_sh SH321973 -16.1000 90.2000 -1 -16.0000 90.2000 20 30 1001 2.50000 -16.0000 90.2000 TC 30 1001 -16.0621 90.2377 2 -16.0000 90.2000 TC 25 1001 45 45 8 273
1973085S09104 1973 40 SI MM PAULA 1973-03-31 03:00:00 TS -16.0075 89.8100 30 1001 bom main 1887 1887 P_____O__PP_P_ SH321973 -16.0374 89.8075 -1 -16.0000 89.8000 20 30 1001 2.00000 2.50000 -15.9799 89.8076 TC 30 1001 -16.0106 89.8300 2 -15.9799 89.8076 TC 25 1001 45 45 8 281
1973085S09104 1973 40 SI MM PAULA 1973-03-31 06:00:00 TS -15.9000 89.4000 25 1001 bom main 1901 1898 O_____O__OO_O_ jtwc_sh SH321973 -15.9000 89.4000 -1 -15.9000 89.4000 20 25 1001 2.00000 -15.9000 89.4000 TC 30 1001 -15.9000 89.4000 2 -15.9000 89.4000 TC 25 1001 45 45 9 289
1973085S09104 1973 40 SI MM PAULA 1973-03-31 09:00:00 TS -15.7236 88.9449 25 1001 bom main 1913 1911 P_____O__PP_P_ SH321973 -15.7224 88.9650 -1 -15.7000 88.9000 20 25 1001 2.00000 -15.7299 88.9650 TC 30 1001 -15.7369 88.9094 2 -15.7299 88.9650 TC 25 1001 45 45 10 294
1973085S09104 1973 40 SI MM PAULA 1973-03-31 12:00:00 TS -15.5030 88.4840 25 1001 bom main 1921 1921 O_____O__OP_O_ jtwc_sh SH321973 -15.5000 88.5000 -1 -15.5000 88.5000 20 25 1001 2.00000 -15.5000 88.5000 TC 30 1001 -15.5181 88.4041 2 -15.5000 88.5000 TC 25 1001 45 45 10 296
1973085S09104 1973 40 SI MM PAULA 1973-03-31 15:00:00 TS -15.2784 87.9821 25 1001 bom main 1937 1935 P_____O__PP_P_ SH321973 -15.2576 87.9774 -1 -15.3000 88.0000 20 25 1001 2.00000 -15.2949 88.0078 TC 30 1001 -15.2651 87.9219 2 -15.2949 88.0078 TC 25 1001 45 45 11 298
1973085S09104 1973 40 SI MM PAULA 1973-03-31 18:00:00 TS -15.0000 87.5000 25 1001 bom main 1946 1942 O_____O__OO_O_ jtwc_sh SH321973 -15.0000 87.5000 -1 -15.0000 87.5000 20 25 1001 2.00000 -15.0000 87.5000 TC 30 1001 -15.0000 87.5000 2 -15.0000 87.5000 TC 25 1001 45 45 10 305
1973085S09104 1973 40 SI MM PAULA 1973-03-31 21:00:00 TS -14.6752 87.1049 25 1001 bom main 1949 1940 P_____O__PP_P_ SH321973 -14.7499 87.1551 -1 -14.5000 87.0000 20 25 1001 2.00000 -14.5477 86.9969 TC 30 1001 -14.7409 87.1651 2 -14.5477 86.9969 TC 25 1001 45 45 9 313
1973085S09104 1973 40 SI MM PAULA 1973-04-01 00:00:00 TS -14.3724 86.8007 25 1001 bom main 1947 1939 O_____O__OP_O_ jtwc_sh SH321973 -14.5000 86.9000 -1 -14.0000 86.5000 20 25 1001 1.50000 2.00000 -14.0000 86.5000 TC 30 1001 -14.4896 86.9029 2 -14.0000 86.5000 TC 25 1001 45 45 6 317
1973085S09104 1973 40 SI MM PAULA 1973-04-01 03:00:00 TS -14.2479 86.6897 main 1939 1939 P_________P___ SH321973 -14.2501 86.6899 -1 TC -14.2435 86.6893 2 TC 5 322
1973085S09104 1973 40 SI MM PAULA 1973-04-01 06:00:00 TS -14.0000 86.5000 main 1939 O_________O___ jtwc_sh SH321973 -14.0000 86.5000 -1 -14.0000 86.5000 2 6 323

About IBTrACS Database

This database is a web-friendly format of International Best Track Archive for Climate Stewardship (IBTrACS), a global best track data archive curated by NOAA dating back to 1842.

Updated: 2021-10-27